createdAt,value
2023-02-17T00:01:33.906Z,4.90
2023-02-17T00:04:00.958Z,7.30
2023-02-17T00:06:28.774Z,7.60
2023-02-17T00:08:56.057Z,8.00
2023-02-17T00:11:22.957Z,7.60
2023-02-17T00:13:49.884Z,8.00
2023-02-17T00:16:18.362Z,7.70
2023-02-17T00:18:45.363Z,7.60
2023-02-17T00:21:22.024Z,7.60
2023-02-17T00:23:49.810Z,7.60
2023-02-17T00:26:17.406Z,7.60
2023-02-17T00:29:01.991Z,7.60
2023-02-17T00:31:29.138Z,7.50
2023-02-17T00:33:58.573Z,7.50
2023-02-17T00:36:27.187Z,7.40
2023-02-17T00:38:55.198Z,7.40
2023-02-17T00:41:22.202Z,7.70
2023-02-17T00:43:49.962Z,7.40
2023-02-17T00:46:17.502Z,8.20
2023-02-17T00:48:45.354Z,7.40
2023-02-17T00:51:12.562Z,7.40
2023-02-17T00:53:39.460Z,7.60
2023-02-17T00:56:07.629Z,7.50
2023-02-17T00:58:34.926Z,7.40
2023-02-17T01:01:01.822Z,7.50
2023-02-17T01:03:28.947Z,8.50
2023-02-17T01:05:56.580Z,7.50
2023-02-17T01:08:23.723Z,7.40
2023-02-17T01:10:51.777Z,7.40
2023-02-17T01:13:19.222Z,8.70
2023-02-17T01:15:50.316Z,7.50
2023-02-17T01:18:18.450Z,7.40
2023-02-17T01:20:45.466Z,7.50
2023-02-17T01:23:12.837Z,7.60
2023-02-17T01:25:44.395Z,7.60
2023-02-17T01:28:15.013Z,7.50
2023-02-17T01:30:41.987Z,7.50
2023-02-17T01:33:08.892Z,7.80
2023-02-17T01:35:35.812Z,7.60
2023-02-17T01:38:02.675Z,7.50
2023-02-17T01:40:30.324Z,7.60
2023-02-17T01:42:57.393Z,8.50
2023-02-17T01:45:30.567Z,7.50
2023-02-17T01:48:02.439Z,7.50
2023-02-17T01:50:35.812Z,7.50
2023-02-17T01:53:47.037Z,7.50
2023-02-17T01:56:14.257Z,7.50
2023-02-17T01:58:43.257Z,7.60
2023-02-17T02:01:10.172Z,8.30
2023-02-17T02:03:37.628Z,7.60
2023-02-17T02:06:08.787Z,8.20
2023-02-17T02:08:41.590Z,7.50
2023-02-17T02:11:08.481Z,7.80
2023-02-17T02:13:35.565Z,7.50
2023-02-17T02:16:10.264Z,7.50
2023-02-17T02:18:57.389Z,7.50
2023-02-17T02:21:30.553Z,7.50
2023-02-17T02:24:16.665Z,7.50
2023-02-17T02:26:54.883Z,7.30
2023-02-17T02:29:24.847Z,7.30
2023-02-17T02:32:20.124Z,7.40
2023-02-17T02:35:10.461Z,7.50
2023-02-17T02:37:41.686Z,7.50
2023-02-17T02:40:09.120Z,7.80
2023-02-17T02:42:37.305Z,7.60
2023-02-17T02:45:07.890Z,8.20
2023-02-17T02:47:43.980Z,7.50
2023-02-17T02:50:14.126Z,7.40
2023-02-17T02:52:51.545Z,7.40
2023-02-17T02:55:27.067Z,7.40
2023-02-17T02:58:11.455Z,7.50
2023-02-17T03:00:44.240Z,7.50
2023-02-17T03:03:17.362Z,7.60
2023-02-17T03:05:57.376Z,7.60
2023-02-17T03:08:34.973Z,7.60
2023-02-17T03:11:02.817Z,7.50
2023-02-17T03:13:38.057Z,7.60
2023-02-17T03:16:06.760Z,8.10
2023-02-17T03:18:34.505Z,7.80
2023-02-17T03:21:21.687Z,8.40
2023-02-17T03:23:48.573Z,8.10
2023-02-17T03:26:15.442Z,7.70
2023-02-17T03:28:42.345Z,7.80
2023-02-17T03:31:09.280Z,7.80
2023-02-17T03:33:36.164Z,8.10
2023-02-17T03:36:03.243Z,7.80
2023-02-17T03:38:30.156Z,8.20
2023-02-17T03:40:57.046Z,8.10
2023-02-17T03:43:23.932Z,7.90
2023-02-17T03:45:51.212Z,7.90
2023-02-17T03:48:18.067Z,7.90
2023-02-17T03:50:44.932Z,7.90
2023-02-17T03:53:12.180Z,8.10
2023-02-17T03:55:39.039Z,7.90
2023-02-17T03:58:05.888Z,8.10
2023-02-17T04:00:32.859Z,8.00
2023-02-17T04:02:59.760Z,8.00
2023-02-17T04:05:26.823Z,8.40
2023-02-17T04:07:53.664Z,8.00
2023-02-17T04:10:20.620Z,8.00
2023-02-17T04:12:47.516Z,8.00
2023-02-17T04:15:14.423Z,7.90
2023-02-17T04:17:41.269Z,8.00
2023-02-17T04:20:08.504Z,7.90
2023-02-17T04:22:35.293Z,7.90
2023-02-17T04:25:02.152Z,7.90
2023-02-17T04:27:29.063Z,8.00
2023-02-17T04:29:55.968Z,8.30
2023-02-17T04:32:22.939Z,8.10
2023-02-17T04:34:49.793Z,8.00
2023-02-17T04:37:16.619Z,8.00
2023-02-17T04:39:43.514Z,7.80
2023-02-17T04:42:10.349Z,7.80
2023-02-17T04:44:37.241Z,7.70
2023-02-17T04:47:04.097Z,7.70
2023-02-17T04:49:31.009Z,7.60
2023-02-17T04:51:57.892Z,7.70
2023-02-17T04:54:24.739Z,7.70
2023-02-17T04:56:51.642Z,7.50
2023-02-17T04:59:18.513Z,7.80
2023-02-17T05:01:45.436Z,7.60
2023-02-17T05:04:12.353Z,7.60
2023-02-17T05:06:39.205Z,8.30
2023-02-17T05:09:06.101Z,7.70
2023-02-17T05:11:33.056Z,8.20
2023-02-17T05:13:59.937Z,7.60
2023-02-17T05:16:26.981Z,7.60
2023-02-17T05:18:53.867Z,7.60
2023-02-17T05:21:20.738Z,7.90
2023-02-17T05:23:47.611Z,7.70
2023-02-17T05:26:14.507Z,7.90
2023-02-17T05:28:41.320Z,7.70
2023-02-17T05:31:08.274Z,7.60
2023-02-17T05:33:35.186Z,7.60
2023-02-17T05:36:06.189Z,7.90
2023-02-17T05:38:33.400Z,5.60
2023-02-17T05:41:00.332Z,7.80
2023-02-17T05:43:27.160Z,8.00
2023-02-17T05:45:54.042Z,7.80
2023-02-17T05:48:20.952Z,7.80
2023-02-17T05:50:47.820Z,8.00
2023-02-17T05:53:14.688Z,7.70
2023-02-17T05:55:41.562Z,7.80
2023-02-17T05:58:08.420Z,7.80
2023-02-17T06:00:35.386Z,8.70
2023-02-17T06:03:02.298Z,7.90
2023-02-17T06:05:29.194Z,8.60
2023-02-17T06:07:56.043Z,7.80
2023-02-17T06:10:22.989Z,8.10
2023-02-17T06:12:49.931Z,7.90
2023-02-17T06:15:16.920Z,7.90
2023-02-17T06:17:43.803Z,7.90
2023-02-17T06:20:12.654Z,7.90
2023-02-17T06:22:39.524Z,7.90
2023-02-17T06:25:06.556Z,7.80
2023-02-17T06:27:33.365Z,7.90
2023-02-17T06:30:00.236Z,8.30
2023-02-17T06:32:27.289Z,7.90
2023-02-17T06:34:54.085Z,7.80
2023-02-17T06:37:20.961Z,7.80
2023-02-17T06:39:47.818Z,8.30
2023-02-17T06:42:14.705Z,7.80
2023-02-17T06:44:41.610Z,7.70
2023-02-17T06:47:08.495Z,7.90
2023-02-17T06:49:35.591Z,7.90
2023-02-17T06:52:02.476Z,7.80
2023-02-17T06:54:29.365Z,8.10
2023-02-17T06:56:56.416Z,8.00
2023-02-17T06:59:23.301Z,8.20
2023-02-17T07:01:50.648Z,8.00
2023-02-17T07:04:18.883Z,8.10
2023-02-17T07:06:45.800Z,8.00
2023-02-17T07:09:13.996Z,8.00
2023-02-17T07:11:42.004Z,8.00
2023-02-17T07:14:08.892Z,7.90
2023-02-17T07:16:35.833Z,8.00
2023-02-17T07:19:02.715Z,8.10
2023-02-17T07:21:29.611Z,8.00
2023-02-17T07:23:56.497Z,8.00
2023-02-17T07:26:23.356Z,8.00
2023-02-17T07:28:50.219Z,8.00
2023-02-17T07:31:17.591Z,7.90
2023-02-17T07:33:45.614Z,8.00
2023-02-17T07:36:14.288Z,8.00
2023-02-17T07:38:41.537Z,8.00
2023-02-17T07:41:10.241Z,8.00
2023-02-17T07:43:37.326Z,8.00
2023-02-17T07:46:05.368Z,8.00
2023-02-17T07:48:32.595Z,8.20
2023-02-17T07:51:09.731Z,8.40
2023-02-17T07:53:37.102Z,8.20
2023-02-17T07:56:05.205Z,8.20
2023-02-17T07:58:33.043Z,8.50
2023-02-17T08:01:05.330Z,8.10
2023-02-17T08:03:32.186Z,8.40
2023-02-17T08:05:59.045Z,8.10
2023-02-17T08:08:44.744Z,8.20
2023-02-17T08:11:34.872Z,8.20
2023-02-17T08:14:02.053Z,8.20
2023-02-17T08:16:28.973Z,8.20
2023-02-17T08:18:56.422Z,8.30
2023-02-17T08:21:23.871Z,8.30
2023-02-17T08:23:51.024Z,8.30
2023-02-17T08:26:18.831Z,8.30
2023-02-17T08:28:45.774Z,8.40
2023-02-17T08:31:20.329Z,8.40
2023-02-17T08:33:47.328Z,8.50
2023-02-17T08:36:14.414Z,8.30
2023-02-17T08:38:41.875Z,8.50
2023-02-17T08:41:12.671Z,8.40
2023-02-17T08:43:40.370Z,8.60
2023-02-17T08:46:08.330Z,8.40
2023-02-17T08:48:36.714Z,8.50
2023-02-17T08:51:04.720Z,8.50
2023-02-17T08:53:31.757Z,8.80
2023-02-17T08:55:58.776Z,8.50
2023-02-17T08:58:25.678Z,8.70
2023-02-17T09:00:52.574Z,8.50
2023-02-17T09:03:19.453Z,8.60
2023-02-17T09:05:46.432Z,8.60
2023-02-17T09:08:13.421Z,8.70
2023-02-17T09:10:40.540Z,8.60
2023-02-17T09:13:07.436Z,8.80
2023-02-17T09:15:34.336Z,8.60
2023-02-17T09:18:01.872Z,8.60
2023-02-17T09:20:28.771Z,8.60
2023-02-17T09:22:55.724Z,8.60
2023-02-17T09:25:22.770Z,8.70
2023-02-17T09:27:49.866Z,8.50
2023-02-17T09:30:16.798Z,8.60
2023-02-17T09:32:43.990Z,8.50
2023-02-17T09:35:14.777Z,8.70
2023-02-17T09:37:41.707Z,8.60
2023-02-17T09:40:09.802Z,8.70
2023-02-17T09:42:39.956Z,8.60
2023-02-17T09:45:12.916Z,8.70
2023-02-17T09:47:58.535Z,8.70
2023-02-17T09:50:32.602Z,8.80
2023-02-17T09:53:05.507Z,8.80
2023-02-17T09:55:36.258Z,8.90
2023-02-17T09:58:12.801Z,8.90
2023-02-17T10:00:39.738Z,9.00
2023-02-17T10:03:13.698Z,9.00
2023-02-17T10:05:44.416Z,9.00
2023-02-17T10:08:17.395Z,9.10
2023-02-17T10:10:51.668Z,9.20
2023-02-17T10:13:20.240Z,9.20
2023-02-17T10:15:49.454Z,9.30
2023-02-17T10:18:19.843Z,9.30
2023-02-17T10:20:51.957Z,9.40
2023-02-17T10:23:20.630Z,9.40
2023-02-17T10:26:09.437Z,9.50
2023-02-17T10:28:55.436Z,9.50
2023-02-17T10:31:28.364Z,9.80
2023-02-17T10:33:58.352Z,9.60
2023-02-17T10:36:25.283Z,8.10
2023-02-17T10:39:00.025Z,9.60
2023-02-17T10:41:28.794Z,9.70
2023-02-17T10:43:55.910Z,9.70
2023-02-17T10:46:27.392Z,9.90
2023-02-17T10:48:55.856Z,9.90
2023-02-17T10:51:25.006Z,10.00
2023-02-17T10:53:55.180Z,10.10
2023-02-17T10:56:24.700Z,10.30
2023-02-17T10:59:07.257Z,10.30
2023-02-17T11:01:34.647Z,10.40
2023-02-17T11:04:08.332Z,10.30
2023-02-17T11:06:42.092Z,10.20
2023-02-17T11:09:18.474Z,10.10
2023-02-17T11:11:55.174Z,10.30
2023-02-17T11:14:26.298Z,10.10
2023-02-17T11:16:58.116Z,10.20
2023-02-17T11:19:27.478Z,10.20
2023-02-17T11:21:55.931Z,10.20
2023-02-17T11:24:23.027Z,10.20
2023-02-17T11:26:57.484Z,10.20
2023-02-17T11:29:24.373Z,10.10
2023-02-17T11:32:02.098Z,10.10
2023-02-17T11:34:30.477Z,10.00
2023-02-17T11:36:59.935Z,10.00
2023-02-17T11:39:27.173Z,9.90
2023-02-17T11:41:54.142Z,9.80
2023-02-17T11:44:25.256Z,9.60
2023-02-17T11:46:53.337Z,9.60
2023-02-17T11:49:20.091Z,9.50
2023-02-17T11:51:49.937Z,9.50
2023-02-17T11:54:32.110Z,9.40
2023-02-17T11:57:01.969Z,9.40
2023-02-17T11:59:41.987Z,9.40
2023-02-17T12:02:27.912Z,9.50
2023-02-17T12:05:27.338Z,9.50
2023-02-17T12:08:06.451Z,9.60
2023-02-17T12:10:39.324Z,9.50
2023-02-17T12:13:24.058Z,9.40
2023-02-17T12:16:09.892Z,9.30
2023-02-17T12:18:55.765Z,9.30
2023-02-17T12:21:41.441Z,9.30
2023-02-17T12:24:14.387Z,9.30
2023-02-17T12:26:46.497Z,9.30
2023-02-17T12:29:22.516Z,9.20
2023-02-17T12:35:53.044Z,9.20
2023-02-17T12:38:30.189Z,9.50
2023-02-17T12:40:59.934Z,9.40
2023-02-17T12:43:53.080Z,9.40
2023-02-17T12:46:24.989Z,9.50
2023-02-17T12:48:56.212Z,9.50
2023-02-17T12:51:23.025Z,9.60
2023-02-17T12:54:05.257Z,9.50
2023-02-17T12:56:46.896Z,9.80
2023-02-17T12:59:27.057Z,9.60
2023-02-17T13:02:03.432Z,9.70
2023-02-17T13:04:31.451Z,9.60
2023-02-17T13:07:21.070Z,9.70
2023-02-17T13:09:49.409Z,10.10
2023-02-17T13:12:22.259Z,9.80
2023-02-17T13:14:53.897Z,9.80
2023-02-17T13:17:24.915Z,9.80
2023-02-17T13:20:04.555Z,9.70
2023-02-17T13:22:31.487Z,9.70
2023-02-17T13:24:58.383Z,9.80
2023-02-17T13:27:28.237Z,9.70
2023-02-17T13:30:01.262Z,9.80
2023-02-17T13:32:29.803Z,9.80
2023-02-17T13:35:13.931Z,9.90
2023-02-17T13:37:42.431Z,9.80
2023-02-17T13:40:15.277Z,9.90
2023-02-17T13:42:44.398Z,9.90
2023-02-17T13:45:13.635Z,9.90
2023-02-17T13:47:43.116Z,9.90
2023-02-17T13:50:42.439Z,9.90
2023-02-17T13:53:22.395Z,9.90
2023-02-17T13:55:49.548Z,9.90
2023-02-17T13:58:21.562Z,9.90
2023-02-17T14:00:48.868Z,9.90
2023-02-17T14:03:26.470Z,9.90
2023-02-17T14:05:55.464Z,9.90
2023-02-17T14:08:22.270Z,9.90
2023-02-17T14:10:49.493Z,9.90
2023-02-17T14:13:16.297Z,9.90
2023-02-17T14:15:50.652Z,10.00
2023-02-17T14:18:27.087Z,10.00
2023-02-17T14:21:04.833Z,10.00
2023-02-17T14:24:01.233Z,10.00
2023-02-17T14:26:39.171Z,10.00
2023-02-17T14:29:07.691Z,10.10
2023-02-17T14:31:39.275Z,10.00
2023-02-17T14:34:30.121Z,10.20
2023-02-17T14:37:07.848Z,10.00
2023-02-17T14:39:34.756Z,10.00
2023-02-17T14:42:01.792Z,10.00
2023-02-17T14:44:28.696Z,10.10
2023-02-17T14:46:55.535Z,10.10
2023-02-17T14:49:22.648Z,10.10
2023-02-17T14:51:53.144Z,10.10
2023-02-17T14:54:20.050Z,10.10
2023-02-17T14:56:49.820Z,10.20
2023-02-17T14:59:16.761Z,10.10
2023-02-17T15:01:43.757Z,10.30
2023-02-17T15:04:57.001Z,10.40
2023-02-17T15:12:16.344Z,12.40
2023-02-17T15:18:08.380Z,10.50
2023-02-17T15:20:35.246Z,10.50
2023-02-17T15:23:14.398Z,10.50
2023-02-17T15:25:41.477Z,10.50
2023-02-17T15:28:11.954Z,10.60
2023-02-17T15:30:39.001Z,10.60
2023-02-17T15:33:09.820Z,10.50
2023-02-17T15:35:55.445Z,10.60
2023-02-17T15:38:22.552Z,10.60
2023-02-17T15:40:49.499Z,10.60
2023-02-17T15:43:20.306Z,10.60
2023-02-17T15:45:47.385Z,10.60
2023-02-17T15:48:43.344Z,10.50
2023-02-17T15:51:12.234Z,10.50
2023-02-17T15:53:39.180Z,10.50
2023-02-17T16:00:15.621Z,10.50
2023-02-17T16:06:42.887Z,10.40
2023-02-17T16:09:10.331Z,10.40
2023-02-17T16:11:46.759Z,10.10
2023-02-17T16:14:21.272Z,10.30
2023-02-17T16:16:48.311Z,10.40
2023-02-17T16:19:43.333Z,10.20
2023-02-17T16:22:10.432Z,10.20
2023-02-17T16:24:37.571Z,10.20
2023-02-17T16:27:08.329Z,10.10
2023-02-17T16:29:35.741Z,10.20
2023-02-17T16:32:02.914Z,10.10
2023-02-17T16:34:32.483Z,10.30
2023-02-17T16:37:00.938Z,10.20
2023-02-17T16:39:27.823Z,10.30
2023-02-17T16:41:54.726Z,10.20
2023-02-17T16:44:22.547Z,10.10
2023-02-17T16:46:53.405Z,10.10
2023-02-17T16:49:36.097Z,10.50
2023-02-17T16:52:07.149Z,10.20
2023-02-17T16:58:16.572Z,10.20
2023-02-17T17:00:43.920Z,10.20
2023-02-17T17:03:11.003Z,10.40
2023-02-17T17:05:39.530Z,10.10
2023-02-17T17:08:07.322Z,10.20
2023-02-17T17:10:34.209Z,10.30
2023-02-17T17:13:01.106Z,10.30
2023-02-17T17:15:28.356Z,10.20
2023-02-17T17:17:57.131Z,10.70
2023-02-17T17:20:31.009Z,10.20
2023-02-17T17:22:59.183Z,10.40
2023-02-17T17:25:26.585Z,10.10
2023-02-17T17:27:53.655Z,10.20
2023-02-17T17:30:22.330Z,10.20
2023-02-17T17:32:49.401Z,10.10
2023-02-17T17:35:16.785Z,10.60
2023-02-17T17:37:43.802Z,10.10
2023-02-17T17:40:58.387Z,10.20
2023-02-17T17:43:25.279Z,10.10
2023-02-17T17:45:52.603Z,10.20
2023-02-17T17:48:19.725Z,10.30
2023-02-17T17:50:48.249Z,10.20
2023-02-17T17:53:15.111Z,10.30
2023-02-17T17:55:41.926Z,10.10
2023-02-17T17:58:09.005Z,10.10
2023-02-17T18:00:36.112Z,10.10
2023-02-17T18:03:04.013Z,10.10
2023-02-17T18:05:30.966Z,10.20
2023-02-17T18:07:58.513Z,10.30
2023-02-17T18:10:25.398Z,10.40
2023-02-17T18:12:52.420Z,10.10
2023-02-17T18:15:19.494Z,10.40
2023-02-17T18:21:47.297Z,10.20
2023-02-17T18:28:25.106Z,10.20
2023-02-17T18:30:52.359Z,10.20
2023-02-17T18:33:20.099Z,10.20
2023-02-17T18:39:47.574Z,10.20
2023-02-17T18:46:27.247Z,10.30
2023-02-17T18:49:23.969Z,10.30
2023-02-17T18:51:51.165Z,10.30
2023-02-17T18:54:30.425Z,10.30
2023-02-17T18:57:28.719Z,10.20
2023-02-17T18:59:55.996Z,10.00
2023-02-17T19:06:27.290Z,10.00
2023-02-17T19:08:58.944Z,9.80
2023-02-17T19:11:26.059Z,9.60
2023-02-17T19:13:53.305Z,9.50
2023-02-17T19:16:22.162Z,9.60
2023-02-17T19:18:49.075Z,9.90
2023-02-17T19:21:16.566Z,9.40
2023-02-17T19:23:44.191Z,9.60
2023-02-17T19:26:12.214Z,9.50
2023-02-17T19:32:13.900Z,9.20
2023-02-17T19:34:40.894Z,9.20
2023-02-17T19:37:07.754Z,9.20
2023-02-17T19:39:39.923Z,9.10
2023-02-17T19:42:08.417Z,9.00
2023-02-17T19:44:37.567Z,8.80
2023-02-17T19:47:04.454Z,9.00
2023-02-17T19:49:31.389Z,9.00
2023-02-17T19:52:47.822Z,9.10
2023-02-17T19:55:14.883Z,9.00
2023-02-17T19:57:41.848Z,9.00
2023-02-17T20:00:09.935Z,9.40
2023-02-17T20:02:36.940Z,9.00
2023-02-17T20:05:04.542Z,9.20
2023-02-17T20:07:31.937Z,9.00
2023-02-17T20:09:58.870Z,9.20
2023-02-17T20:12:25.877Z,9.10
2023-02-17T20:18:21.629Z,9.20
2023-02-17T20:20:52.475Z,9.10
2023-02-17T20:23:43.279Z,9.20
2023-02-17T20:26:12.107Z,9.60
2023-02-17T20:28:42.699Z,9.20
2023-02-17T20:31:10.057Z,9.20
2023-02-17T20:33:37.148Z,9.30
2023-02-17T20:36:04.727Z,9.20
2023-02-17T20:38:32.123Z,9.80
2023-02-17T20:40:59.569Z,9.20
2023-02-17T20:43:26.572Z,9.30
2023-02-17T20:49:53.441Z,9.20
2023-02-17T20:52:46.232Z,9.30
2023-02-17T20:55:14.719Z,9.20
2023-02-17T20:57:41.850Z,9.60
2023-02-17T21:00:09.661Z,9.30
2023-02-17T21:06:21.684Z,9.30
2023-02-17T21:09:19.164Z,9.20
2023-02-17T21:11:46.918Z,9.20
2023-02-17T21:14:13.871Z,9.20
2023-02-17T21:16:41.324Z,9.10
2023-02-17T21:19:08.379Z,9.00
2023-02-17T21:21:35.841Z,9.00
2023-02-17T21:24:18.629Z,9.20
2023-02-17T21:26:45.798Z,9.00
2023-02-17T21:29:13.185Z,9.50
2023-02-17T21:31:40.224Z,9.00
2023-02-17T21:34:08.989Z,9.50
2023-02-17T21:40:35.393Z,9.10
2023-02-17T21:43:21.106Z,8.40
2023-02-17T21:45:48.352Z,9.50
2023-02-17T21:48:15.375Z,10.50
2023-02-17T21:50:42.371Z,9.00
2023-02-17T21:53:09.437Z,9.20
2023-02-17T21:55:36.409Z,9.00
2023-02-17T21:58:03.418Z,9.40
2023-02-17T22:00:30.362Z,9.00
2023-02-17T22:06:37.218Z,9.10
2023-02-17T22:09:05.212Z,9.10
2023-02-17T22:11:47.781Z,9.20
2023-02-17T22:14:16.705Z,9.10
2023-02-17T22:16:44.444Z,9.30
2023-02-17T22:19:19.488Z,9.20
2023-02-17T22:21:46.652Z,9.20
2023-02-17T22:24:13.990Z,9.20
2023-02-17T22:26:41.086Z,9.40
2023-02-17T22:29:08.204Z,9.20
2023-02-17T22:31:35.364Z,6.80
2023-02-17T22:34:03.946Z,9.30
2023-02-17T22:36:31.984Z,9.60
2023-02-17T22:38:59.305Z,9.30
2023-02-17T22:41:26.471Z,9.40
2023-02-17T22:43:54.181Z,9.30
2023-02-17T22:46:22.462Z,9.30
2023-02-17T22:48:50.352Z,9.20
2023-02-17T22:51:19.147Z,9.40
2023-02-17T22:53:46.579Z,9.20
2023-02-17T22:56:13.893Z,9.40
2023-02-17T22:59:15.370Z,9.20
2023-02-17T23:01:42.346Z,9.30
2023-02-17T23:04:12.126Z,9.60
2023-02-17T23:06:39.073Z,9.30
2023-02-17T23:09:07.202Z,9.60
2023-02-17T23:11:50.708Z,9.30
2023-02-17T23:14:19.678Z,9.40
2023-02-17T23:20:23.226Z,9.30
2023-02-17T23:22:50.763Z,9.30
2023-02-17T23:25:17.750Z,9.30
2023-02-17T23:27:44.655Z,9.40
2023-02-17T23:30:16.973Z,9.40
2023-02-17T23:32:43.892Z,9.40
2023-02-17T23:35:11.308Z,9.40
2023-02-17T23:37:38.245Z,9.40
2023-02-17T23:40:05.803Z,9.30
2023-02-17T23:42:32.774Z,9.50
2023-02-17T23:44:59.754Z,9.40
2023-02-17T23:47:31.670Z,9.40
2023-02-17T23:49:58.617Z,9.30
2023-02-17T23:52:25.600Z,9.70
2023-02-17T23:54:52.465Z,9.30
2023-02-17T23:57:19.416Z,9.40
2023-02-17T23:59:46.331Z,9.20
